Time;durP1;ratioP1;P1;durP2;ratioP2;P2;SDS_P1;SDS_P2;PMS_P1;PMS_P2;Temp;Humidity;BMP_temperature;BMP_pressure;BME280_temperature;BME280_humidity;BME280_pressure;Samples;Min_cycle;Max_cycle;Signal;HPM_P1;HPM_P2
2023/04/23 00:01:34;;;;;;;7.75;5.28;;;;;;;7.69;100.00;94719.91;10422965;28;20060;-73
2023/04/23 00:06:35;;;;;;;12.45;5.35;;;;;;;7.65;100.00;94718.78;10423342;28;20040;-73
2023/04/23 00:11:36;;;;;;;8.48;5.30;;;;;;;7.59;100.00;94713.66;10423264;28;20111;-73
2023/04/23 00:16:38;;;;;;;10.32;5.72;;;;;;;7.60;100.00;94710.72;10422655;28;20471;-73
2023/04/23 00:21:38;;;;;;;7.90;4.80;;;;;;;7.58;100.00;94707.50;10422417;28;20087;-74
2023/04/23 00:26:39;;;;;;;12.90;5.43;;;;;;;7.65;100.00;94718.78;10392643;28;20114;-74
2023/04/23 00:31:39;;;;;;;8.65;5.60;;;;;;;7.77;100.00;94713.28;10422116;28;20574;-74
2023/04/23 00:36:40;;;;;;;8.88;5.38;;;;;;;7.72;100.00;94707.06;10421747;28;20045;-73
2023/04/23 00:41:41;;;;;;;8.07;5.43;;;;;;;7.61;100.00;94706.19;10420934;28;20148;-73
2023/04/23 00:46:42;;;;;;;12.25;6.13;;;;;;;7.41;100.00;94710.31;10421838;28;20136;-73
2023/04/23 00:51:42;;;;;;;7.07;5.07;;;;;;;7.32;100.00;94709.13;10403196;28;20406;-74
2023/04/23 00:56:43;;;;;;;12.37;5.97;;;;;;;7.11;100.00;94713.47;10403631;28;20032;-75
2023/04/23 01:01:44;;;;;;;15.07;5.43;;;;;;;7.18;100.00;94708.75;10421244;28;20042;-73
2023/04/23 01:06:46;;;;;;;11.20;5.80;;;;;;;7.18;100.00;94711.41;10421131;28;20040;-74
2023/04/23 01:11:48;;;;;;;9.57;5.68;;;;;;;7.19;100.00;94718.38;10402998;28;20093;-73
2023/04/23 01:16:49;;;;;;;10.40;5.35;;;;;;;7.26;100.00;94708.28;10420974;28;20423;-73
2023/04/23 01:21:50;;;;;;;11.52;5.18;;;;;;;7.36;100.00;94704.91;10420601;28;20048;-74
2023/04/23 01:26:51;;;;;;;12.10;6.22;;;;;;;7.31;100.00;94707.50;10402787;28;20021;-73
2023/04/23 01:31:52;;;;;;;12.70;6.70;;;;;;;7.27;100.00;94707.22;10431525;28;20025;-74
2023/04/23 01:36:53;;;;;;;9.77;5.53;;;;;;;7.29;100.00;94709.66;10420792;28;20400;-74
2023/04/23 01:41:54;;;;;;;9.70;5.43;;;;;;;7.18;100.00;94720.22;10402066;28;20025;-74
2023/04/23 01:46:56;;;;;;;7.40;5.53;;;;;;;6.81;100.00;94725.47;10402203;28;20539;-75
2023/04/23 01:51:56;;;;;;;9.00;5.35;;;;;;;6.54;100.00;94728.06;10425124;28;20029;-74
2023/04/23 01:56:57;;;;;;;9.23;5.18;;;;;;;6.42;100.00;94730.81;10409807;28;20396;-74
2023/04/23 02:01:58;;;;;;;8.43;6.07;;;;;;;6.44;100.00;94729.53;10427811;28;20470;-74
2023/04/23 02:06:58;;;;;;;10.55;6.07;;;;;;;6.41;100.00;94735.38;10427411;28;20021;-74
2023/04/23 02:12:00;;;;;;;9.60;6.07;;;;;;;6.41;100.00;94739.91;10427229;28;20056;-74
2023/04/23 02:17:01;;;;;;;9.00;6.07;;;;;;;6.41;100.00;94731.91;10426977;28;20807;-74
2023/04/23 02:22:02;;;;;;;10.07;6.57;;;;;;;6.42;100.00;94736.16;10409173;28;20020;-74
2023/04/23 02:27:03;;;;;;;9.95;6.45;;;;;;;6.42;100.00;94744.16;10427028;28;20400;-74
2023/04/23 02:32:03;;;;;;;12.82;6.88;;;;;;;6.46;100.00;94745.28;10426459;28;20079;-74
2023/04/23 02:37:04;;;;;;;12.55;7.13;;;;;;;6.46;100.00;94734.63;10425961;28;20435;-74
2023/04/23 02:42:05;;;;;;;11.77;6.72;;;;;;;6.53;100.00;94724.59;10416750;28;20524;-74
2023/04/23 02:47:05;;;;;;;10.40;7.28;;;;;;;6.56;100.00;94734.75;10410452;28;20032;-74
2023/04/23 02:52:06;;;;;;;11.50;7.80;;;;;;;6.55;100.00;94735.81;10425217;28;20033;-74
2023/04/23 02:57:06;;;;;;;13.70;7.82;;;;;;;6.48;100.00;94727.97;10425592;28;20271;-74
2023/04/23 03:02:07;;;;;;;9.38;6.97;;;;;;;6.30;100.00;94738.94;10407056;28;20791;-74
2023/04/23 03:07:07;;;;;;;10.73;6.43;;;;;;;6.31;100.00;94744.03;10425152;28;20112;-73
2023/04/23 03:12:08;;;;;;;12.80;6.60;;;;;;;6.26;100.00;94748.50;10425498;28;20331;-74
2023/04/23 03:17:08;;;;;;;10.82;7.95;;;;;;;6.18;100.00;94763.06;10424928;28;20094;-73
2023/04/23 03:22:09;;;;;;;14.68;7.53;;;;;;;6.05;100.00;94753.53;10424421;28;20036;-74
2023/04/23 03:27:09;;;;;;;12.13;8.00;;;;;;;5.90;100.00;94759.44;10424112;28;20025;-74
2023/04/23 03:32:10;;;;;;;14.07;7.45;;;;;;;5.87;100.00;94759.91;10424009;28;20311;-74
2023/04/23 03:37:10;;;;;;;15.57;8.07;;;;;;;5.84;100.00;94759.59;10424245;28;20053;-73
2023/04/23 03:42:11;;;;;;;13.27;8.73;;;;;;;5.93;100.00;94768.78;10424093;28;20653;-75
2023/04/23 03:47:11;;;;;;;15.82;7.70;;;;;;;6.04;100.00;94764.44;10423535;28;20395;-75
2023/04/23 03:52:12;;;;;;;10.60;7.45;;;;;;;6.07;100.00;94775.47;10423470;28;20064;-74
2023/04/23 03:57:12;;;;;;;13.37;6.77;;;;;;;6.14;100.00;94772.63;10422853;28;20072;-74
2023/04/23 04:02:13;;;;;;;12.32;8.40;;;;;;;6.16;100.00;94778.50;10423065;28;20280;-75
2023/04/23 04:07:13;;;;;;;13.27;8.00;;;;;;;6.16;100.00;94783.84;10422993;28;20151;-75
2023/04/23 04:12:15;;;;;;;11.35;6.55;;;;;;;6.14;100.00;94784.09;10404346;28;20021;-74
2023/04/23 04:17:15;;;;;;;18.58;8.85;;;;;;;5.95;100.00;94780.84;10422442;28;20032;-75
2023/04/23 04:22:16;;;;;;;14.52;7.47;;;;;;;5.91;100.00;94790.38;10421910;28;20533;-74
2023/04/23 04:27:17;;;;;;;12.95;7.93;;;;;;;5.82;100.00;94789.16;10421979;28;20025;-75
2023/04/23 04:32:18;;;;;;;15.25;9.13;;;;;;;5.94;100.00;94797.88;10420415;28;20068;-75
2023/04/23 04:37:20;;;;;;;15.57;9.38;;;;;;;6.06;100.00;94799.72;10418777;28;20050;-74
2023/04/23 04:42:20;;;;;;;13.40;8.98;;;;;;;6.35;100.00;94805.75;10419183;28;20471;-75
2023/04/23 04:47:21;;;;;;;12.45;8.25;;;;;;;6.63;100.00;94804.81;10411086;28;20033;-75
2023/04/23 04:52:21;;;;;;;12.52;8.55;;;;;;;6.89;100.00;94807.81;10417135;28;20035;-75
2023/04/23 04:57:22;;;;;;;13.68;8.25;;;;;;;7.05;100.00;94811.50;10403179;28;20033;-74
2023/04/23 05:02:22;;;;;;;11.32;7.93;;;;;;;7.34;100.00;94796.06;10413721;28;20670;-74
2023/04/23 05:07:22;;;;;;;13.82;8.55;;;;;;;7.78;100.00;94803.16;10419912;28;20043;-74
2023/04/23 05:12:23;;;;;;;11.37;7.77;;;;;;;8.51;100.00;94802.72;10416023;28;20045;-74
2023/04/23 05:17:23;;;;;;;10.57;7.13;;;;;;;9.23;100.00;94799.56;10420437;28;20051;-74
2023/04/23 05:22:25;;;;;;;11.32;6.88;;;;;;;9.68;100.00;94802.63;10419687;28;20337;-74
2023/04/23 05:27:28;;;;;;;11.38;6.38;;;;;;;10.25;100.00;94787.38;10426696;28;20025;-79
2023/04/23 05:32:29;;;;;;;13.95;7.00;;;;;;;11.16;100.00;94789.38;10423024;28;20084;-72
2023/04/23 05:37:29;;;;;;;9.35;6.25;;;;;;;11.58;100.00;94796.16;10426580;28;20110;-70
2023/04/23 05:42:30;;;;;;;11.93;6.32;;;;;;;12.30;100.00;94809.19;10424996;28;20033;-68
2023/04/23 05:47:30;;;;;;;13.75;6.03;;;;;;;13.38;100.00;94794.63;10413255;28;20025;-71
2023/04/23 05:52:32;;;;;;;8.50;5.30;;;;;;;14.27;100.00;94792.28;10419123;28;20043;-69
2023/04/23 05:57:32;;;;;;;12.60;5.95;;;;;;;14.88;100.00;94795.09;10426150;28;20285;-69
2023/04/23 06:02:33;;;;;;;7.22;4.80;;;;;;;15.34;96.02;94791.50;10421602;28;20028;-74
2023/04/23 06:07:33;;;;;;;9.90;5.20;;;;;;;16.42;87.35;94791.84;10423809;28;20412;-71
2023/04/23 06:12:37;;;;;;;8.15;4.97;;;;;;;17.00;84.08;94783.91;10422807;28;20471;-69
2023/04/23 06:17:38;;;;;;;13.77;5.18;;;;;;;17.80;76.53;94781.09;10426831;28;20086;-73
2023/04/23 06:22:38;;;;;;;6.47;4.35;;;;;;;18.15;70.33;94772.97;10426152;28;20032;-74
2023/04/23 06:27:39;;;;;;;7.38;4.75;;;;;;;18.47;68.09;94778.25;10422050;28;20041;-75
2023/04/23 06:32:40;;;;;;;10.02;4.90;;;;;;;19.25;67.78;94778.03;10412414;28;20039;-74
2023/04/23 06:37:40;;;;;;;11.80;5.07;;;;;;;19.01;63.71;94775.91;10419166;28;20048;-74
2023/04/23 06:42:41;;;;;;;16.55;8.90;;;;;;;19.25;64.25;94778.03;10423615;28;20291;-74
2023/04/23 06:47:42;;;;;;;9.05;5.72;;;;;;;19.65;60.02;94776.91;10425115;28;20490;-74
2023/04/23 06:52:42;;;;;;;12.55;6.97;;;;;;;19.70;57.33;94771.25;10425463;28;20499;-74
2023/04/23 06:57:42;;;;;;;11.52;5.30;;;;;;;20.84;56.23;94770.34;10425319;28;20025;-74
2023/04/23 07:02:43;;;;;;;8.10;4.30;;;;;;;21.79;51.00;94764.06;10400554;28;20093;-74
2023/04/23 07:07:44;;;;;;;10.98;4.55;;;;;;;22.20;48.70;94767.59;10407229;28;20514;-74
2023/04/23 07:12:44;;;;;;;8.45;4.50;;;;;;;22.32;47.19;94764.03;10424506;28;20033;-74
2023/04/23 07:17:45;;;;;;;5.90;3.75;;;;;;;23.00;49.77;94756.91;10424734;28;20112;-76
2023/04/23 07:22:46;;;;;;;12.23;4.60;;;;;;;23.50;45.86;94751.91;10424940;28;20025;-74
2023/04/23 07:27:46;;;;;;;5.88;3.60;;;;;;;24.64;42.95;94747.31;10424124;28;20283;-75
2023/04/23 07:32:47;;;;;;;4.97;3.90;;;;;;;23.64;42.57;94751.41;10424181;28;20530;-74
2023/04/23 07:37:52;;;;;;;5.18;3.67;;;;;;;23.70;42.41;94750.78;10422608;28;20153;-75
2023/04/23 07:42:52;;;;;;;7.07;4.40;;;;;;;24.37;40.54;94758.13;10405168;28;20027;-75
2023/04/23 07:47:53;;;;;;;8.10;4.30;;;;;;;25.15;38.99;94748.22;10404732;28;20021;-74
2023/04/23 07:52:53;;;;;;;16.93;4.67;;;;;;;22.83;43.04;94747.06;10423081;28;20029;-73
2023/04/23 07:57:54;;;;;;;9.38;4.93;;;;;;;22.15;48.03;94752.22;10422903;28;20446;-76
2023/04/23 08:02:54;;;;;;;9.10;5.57;;;;;;;24.49;42.88;94743.47;10419319;28;20057;-74
2023/04/23 08:07:55;;;;;;;9.88;5.32;;;;;;;25.63;41.88;94737.63;10413260;28;20899;-76
2023/04/23 08:12:55;;;;;;;12.60;4.18;;;;;;;26.43;37.89;94737.56;10423783;28;20052;-76
2023/04/23 08:17:56;;;;;;;6.22;4.30;;;;;;;25.69;37.43;94738.09;10407778;28;20026;-73
2023/04/23 08:22:57;;;;;;;10.90;4.47;;;;;;;23.26;42.24;94744.63;10403142;28;20029;-74
2023/04/23 08:27:57;;;;;;;13.88;4.90;;;;;;;24.86;39.83;94734.75;10421883;28;20036;-74
2023/04/23 08:32:58;;;;;;;8.10;4.55;;;;;;;26.37;37.25;94719.78;10422124;28;20033;-74
2023/04/23 08:37:58;;;;;;;13.65;4.50;;;;;;;26.50;36.33;94712.06;10421669;28;20056;-74
2023/04/23 08:43:09;;;;;;;6.07;4.07;;;;;;;26.95;34.32;94715.69;10421427;28;20036;-76
2023/04/23 08:48:10;;;;;;;9.00;3.80;;;;;;;27.61;33.95;94717.84;10422485;28;20271;-76
2023/04/23 08:53:18;;;;;;;9.23;4.10;;;;;;;26.14;36.88;94708.09;10421711;28;20040;-75
2023/04/23 08:58:20;;;;;;;9.98;3.60;;;;;;;26.04;35.86;94704.81;10405497;28;20120;-76
2023/04/23 09:03:21;;;;;;;4.72;3.80;;;;;;;26.93;34.50;94707.03;10402028;28;20029;-76
2023/04/23 09:08:22;;;;;;;9.20;3.72;;;;;;;27.43;33.48;94703.94;10421040;28;20116;-74
2023/04/23 09:13:23;;;;;;;8.43;4.10;;;;;;;26.80;35.73;94705.69;10421425;28;20039;-75
2023/04/23 09:18:23;;;;;;;8.57;4.40;;;;;;;25.64;35.98;94703.44;10421960;28;20442;-76
2023/04/23 09:23:24;;;;;;;8.05;3.78;;;;;;;26.50;35.60;94691.97;10399771;28;20025;-75
2023/04/23 09:28:35;;;;;;;11.00;3.73;;;;;;;27.29;35.17;94693.53;10421688;28;20152;-77
2023/04/23 09:33:35;;;;;;;8.05;4.28;;;;;;;26.10;35.30;94683.25;10415988;28;20029;-75
2023/04/23 09:38:36;;;;;;;7.30;4.30;;;;;;;25.67;36.36;94680.66;10420500;28;20407;-75
2023/04/23 09:43:40;;;;;;;7.53;3.70;;;;;;;25.34;35.83;94673.09;10417271;28;20025;-75
2023/04/23 09:48:47;;;;;;;10.70;3.30;;;;;;;27.16;33.09;94661.13;10419627;28;20111;-73
2023/04/23 09:53:48;;;;;;;5.13;3.85;;;;;;;25.08;35.07;94661.69;10425668;28;20039;-73
2023/04/23 09:58:48;;;;;;;8.40;3.60;;;;;;;27.59;32.54;94655.94;10419445;28;20032;-74
2023/04/23 10:03:52;;;;;;;7.37;3.43;;;;;;;28.11;30.29;94655.81;10419325;28;20083;-75
2023/04/23 10:08:52;;;;;;;5.18;3.83;;;;;;;26.93;32.87;94643.59;10419180;28;20029;-73
2023/04/23 10:13:54;;;;;;;5.13;3.25;;;;;;;29.29;100.00;94646.19;10410787;28;20470;-74
2023/04/23 10:18:58;;;;;;;4.03;2.72;;;;;;;-146.07;100.00;70291.31;10415327;28;20041;-73
2023/04/23 10:24:01;;;;;;;14.45;2.65;;;;;;;-146.07;100.00;70291.31;10424657;28;20104;-75
2023/04/23 10:29:03;;;;;;;4.20;2.83;;;;;;;-146.07;100.00;70291.31;10426767;28;20478;-75
2023/04/23 10:34:06;;;;;;;4.53;2.35;;;;;;;-146.07;100.00;70291.31;10417146;28;20032;-77
2023/04/23 10:39:09;;;;;;;6.75;2.67;;;;;;;29.29;30.33;94646.19;10418563;28;20053;-74
2023/04/23 10:44:15;;;;;;;4.90;2.75;;;;;;;32.43;25.13;94589.38;10425867;28;20036;-76
2023/04/23 10:49:16;;;;;;;4.70;2.42;;;;;;;31.60;24.81;94584.78;10425702;28;20040;-75
2023/04/23 10:54:18;;;;;;;6.80;2.65;;;;;;;33.05;23.89;94575.31;10413219;28;20040;-72
2023/04/23 10:59:20;;;;;;;2.25;2.00;;;;;;;32.45;22.85;94561.13;10425130;28;20031;-76
2023/04/23 11:04:26;;;;;;;5.18;2.58;;;;;;;31.97;24.09;94577.63;10425059;28;20020;-74
2023/04/23 11:09:27;;;;;;;;;;;;;;;32.73;24.55;94559.94;10407065;28;20032;-74
2023/04/23 11:14:37;;;;;;;6.00;2.78;;;;;;;30.01;27.00;94557.41;10424314;28;19920;-73
2023/04/23 11:19:39;;;;;;;8.13;3.92;;;;;;;-146.07;100.00;70291.31;10416667;28;20118;-74
2023/04/23 11:24:41;;;;;;;7.80;3.20;;;;;;;23.99;32.13;94553.03;10423055;28;20025;-74
2023/04/23 11:29:44;;;;;;;10.10;4.05;;;;;;;22.52;34.87;94554.13;10423747;28;20029;-72
2023/04/23 11:34:46;;;;;;;6.35;4.25;;;;;;;21.82;35.67;94553.53;10422903;28;20565;-74
2023/04/23 11:39:48;;;;;;;4.60;3.58;;;;;;;21.23;35.06;94546.75;10420075;28;20733;-74
2023/04/23 11:44:48;;;;;;;7.20;4.38;;;;;;;21.21;36.02;94546.31;10415411;28;20090;-74
2023/04/23 11:49:48;;;;;;;8.10;3.35;;;;;;;20.78;36.26;94539.56;10423540;28;20557;-73
2023/04/23 11:54:49;;;;;;;6.68;3.47;;;;;;;20.68;37.18;94532.63;10422456;28;20028;-72
2023/04/23 11:59:52;;;;;;;11.60;3.90;;;;;;;20.32;35.08;94524.06;10422849;28;20048;-73
2023/04/23 12:04:54;;;;;;;10.65;3.78;;;;;;;20.24;35.48;94524.16;10423350;28;20471;-73
2023/04/23 12:09:59;;;;;;;4.18;2.85;;;;;;;19.96;36.45;94514.69;10404259;28;20517;-73
2023/04/23 12:15:06;;;;;;;4.55;3.88;;;;;;;20.01;34.47;94527.34;10422191;28;20029;-74
2023/04/23 12:20:12;;;;;;;6.73;3.40;;;;;;;19.57;33.82;94516.06;10421965;28;20105;-75
2023/04/23 12:25:12;;;;;;;5.32;3.00;;;;;;;19.52;34.52;94506.16;10422113;28;20487;-74
2023/04/23 12:30:13;;;;;;;4.25;3.75;;;;;;;19.69;33.76;94507.09;10421983;28;20025;-74
2023/04/23 12:35:13;;;;;;;6.13;3.92;;;;;;;19.10;35.31;94503.47;10421185;28;20128;-74
2023/04/23 12:40:14;;;;;;;4.72;3.38;;;;;;;19.12;34.97;94495.78;10403783;28;20035;-73
2023/04/23 12:45:15;;;;;;;5.80;3.63;;;;;;;18.78;35.45;94516.66;10422319;28;20029;-74
2023/04/23 12:50:15;;;;;;;13.38;3.53;;;;;;;18.75;35.24;94499.06;10420969;28;20041;-74
2023/04/23 12:55:16;;;;;;;7.78;3.47;;;;;;;18.89;35.94;94504.28;10403174;28;20040;-74
2023/04/23 13:00:16;;;;;;;6.22;3.00;;;;;;;19.13;35.11;94492.72;10421006;28;20035;-74
2023/04/23 13:05:17;;;;;;;6.13;3.03;;;;;;;19.26;36.16;94490.84;10420561;28;20079;-74
2023/04/23 13:10:18;;;;;;;5.60;3.50;;;;;;;19.21;36.68;94495.69;10420838;28;20032;-74
2023/04/23 13:15:18;;;;;;;4.88;3.15;;;;;;;19.40;34.83;94487.03;10420403;28;20029;-74
2023/04/23 13:20:19;;;;;;;8.67;2.97;;;;;;;19.24;33.75;94487.66;10420549;28;20494;-74
2023/04/23 13:25:19;;;;;;;6.15;2.95;;;;;;;19.28;33.46;94488.59;10420449;28;20349;-72
2023/04/23 13:30:19;;;;;;;8.93;3.13;;;;;;;19.26;35.82;94485.38;10420562;28;20025;-74
2023/04/23 13:35:20;;;;;;;4.88;3.10;;;;;;;19.33;34.61;94490.28;10419836;28;20307;-74
2023/04/23 13:40:20;;;;;;;4.87;3.37;;;;;;;19.37;34.05;94482.22;10420097;28;20109;-74
2023/04/23 13:45:21;;;;;;;3.70;2.67;;;;;;;19.52;33.92;94476.19;10420448;28;20025;-73
2023/04/23 13:50:21;;;;;;;5.53;2.87;;;;;;;19.74;33.58;94460.53;10427991;28;20490;-73
2023/04/23 13:55:22;;;;;;;3.00;2.60;;;;;;;19.51;33.43;94466.41;10409711;28;20280;-73
2023/04/23 14:00:24;;;;;;;5.82;3.03;;;;;;;19.08;34.87;94464.88;10427450;28;20025;-73
2023/04/23 14:05:24;;;;;;;4.05;2.90;;;;;;;18.97;34.05;94471.88;10409256;28;20025;-73
2023/04/23 14:10:25;;;;;;;6.68;2.83;;;;;;;19.08;33.84;94471.13;10423764;28;20079;-73
2023/04/23 14:15:25;;;;;;;4.45;3.10;;;;;;;19.32;33.57;94466.13;10413367;28;20369;-75
2023/04/23 14:20:26;;;;;;;4.28;2.78;;;;;;;19.19;32.21;94466.06;10426965;28;20144;-74
2023/04/23 14:25:39;;;;;;;6.65;2.65;;;;;;;19.16;32.80;94458.56;10396383;28;20021;-73
2023/04/23 14:30:39;;;;;;;3.92;3.13;;;;;;;19.16;36.15;94452.31;10426412;28;20040;-73
2023/04/23 14:35:40;;;;;;;4.57;3.53;;;;;;;18.81;37.44;94447.13;10397134;28;20095;-74
2023/04/23 14:40:40;;;;;;;8.40;4.13;;;;;;;18.40;40.32;94463.09;10420390;28;20036;-74
2023/04/23 14:45:41;;;;;;;9.07;4.63;;;;;;;17.87;42.25;94460.59;10426372;28;20786;-72
2023/04/23 14:50:41;;;;;;;7.27;4.10;;;;;;;17.73;42.65;94457.31;10408601;28;20264;-73
2023/04/23 14:55:42;;;;;;;7.07;4.80;;;;;;;17.65;43.96;94453.50;10425654;28;20307;-72
2023/04/23 15:00:43;;;;;;;8.80;4.90;;;;;;;17.50;46.27;94456.72;10424147;28;20029;-73
2023/04/23 15:05:43;;;;;;;6.85;4.85;;;;;;;17.21;46.31;94455.53;10407180;28;20392;-70
2023/04/23 15:10:44;;;;;;;6.80;4.85;;;;;;;17.02;45.15;94450.44;10406873;28;20033;-70
2023/04/23 15:15:47;;;;;;;5.90;4.00;;;;;;;17.21;44.30;94445.47;10422379;28;20515;-70
2023/04/23 15:20:48;;;;;;;6.80;4.22;;;;;;;17.28;42.56;94455.06;10419526;28;20025;-70
2023/04/23 15:25:49;;;;;;;7.35;4.43;;;;;;;17.08;41.59;94441.81;10419141;28;20419;-69
2023/04/23 15:30:50;;;;;;;5.53;3.80;;;;;;;17.14;41.65;94444.38;10419427;28;20491;-69
2023/04/23 15:35:50;;;;;;;5.93;4.43;;;;;;;17.36;41.82;94427.84;10419808;28;20049;-69
2023/04/23 15:40:51;;;;;;;8.87;4.50;;;;;;;17.50;40.10;94427.66;10403292;28;20028;-70
2023/04/23 15:45:53;;;;;;;5.83;3.80;;;;;;;17.63;40.32;94430.50;10421363;28;20287;-70
2023/04/23 15:50:54;;;;;;;6.70;4.10;;;;;;;17.53;41.63;94426.22;10420055;28;20375;-70
2023/04/23 15:55:54;;;;;;;9.10;4.22;;;;;;;17.27;43.13;94437.94;10418888;28;20033;-69
2023/04/23 16:00:55;;;;;;;7.68;4.70;;;;;;;17.27;45.33;94439.88;10408952;28;20719;-76
2023/04/23 16:05:55;;;;;;;7.72;5.30;;;;;;;16.94;46.44;94434.94;10411613;28;20013;-74
2023/04/23 16:10:57;;;;;;;6.32;4.30;;;;;;;16.57;48.57;94438.75;10394187;28;20052;-75
2023/04/23 16:15:57;;;;;;;8.98;5.47;;;;;;;16.31;50.73;94437.94;10411096;28;20032;-71
2023/04/23 16:20:59;;;;;;;9.60;5.25;;;;;;;15.86;51.39;94436.22;10408944;28;20031;-71
2023/04/23 16:26:00;;;;;;;8.95;5.00;;;;;;;15.65;55.04;94444.09;10408933;28;20035;-72
2023/04/23 16:31:01;;;;;;;9.00;6.43;;;;;;;15.50;58.49;94435.28;10394018;28;20072;-72
2023/04/23 16:36:01;;;;;;;11.35;6.10;;;;;;;15.39;63.13;94439.31;10412791;28;20214;-71
2023/04/23 16:41:02;;;;;;;7.40;4.75;;;;;;;15.29;66.77;94434.19;10410322;28;20029;-73
2023/04/23 16:46:02;;;;;;;12.82;6.28;;;;;;;15.06;72.20;94445.06;10401125;28;20038;-73
2023/04/23 16:51:03;;;;;;;8.15;6.63;;;;;;;14.83;76.65;94447.75;10403699;28;20028;-71
2023/04/23 16:56:04;;;;;;;11.23;6.43;;;;;;;14.75;79.61;94448.50;10406368;28;20845;-72
2023/04/23 17:01:05;;;;;;;10.88;6.55;;;;;;;14.70;81.96;94443.19;10405994;28;20017;-72
2023/04/23 17:06:11;;;;;;;13.07;6.90;;;;;;;14.58;83.90;94437.50;10409578;28;20017;-76
2023/04/23 17:11:11;;;;;;;19.50;7.70;;;;;;;14.53;85.28;94441.91;10409860;28;20283;-75
2023/04/23 17:16:12;;;;;;;13.50;8.67;;;;;;;14.43;86.72;94454.84;10400459;28;20506;-77
2023/04/23 17:21:12;;;;;;;12.87;8.23;;;;;;;14.26;89.15;94453.59;10386106;28;20278;-77
2023/04/23 17:26:13;;;;;;;17.77;7.35;;;;;;;14.23;89.03;94461.50;10429747;28;20283;-78
2023/04/23 17:31:13;;;;;;;11.75;7.10;;;;;;;14.05;90.81;94455.94;10420426;28;20033;-72
2023/04/23 17:36:15;;;;;;;11.45;7.60;;;;;;;13.96;91.82;94455.81;10397142;28;20049;-73
2023/04/23 17:41:16;;;;;;;8.60;7.28;;;;;;;13.87;92.18;94463.06;10414205;28;20071;-75
2023/04/23 17:46:17;;;;;;;10.70;7.13;;;;;;;13.82;92.61;94465.84;10413219;28;20033;-75
2023/04/23 17:51:21;;;;;;;11.65;7.68;;;;;;;13.79;92.91;94480.75;10397637;28;20124;-72
2023/04/23 17:56:21;;;;;;;10.07;7.15;;;;;;;13.73;92.82;94483.84;10394036;28;20162;-70
2023/04/23 18:01:23;;;;;;;10.07;6.82;;;;;;;13.73;92.74;94490.06;10415775;28;20025;-74
2023/04/23 18:06:23;;;;;;;9.95;7.00;;;;;;;13.73;92.96;94494.63;10407874;28;20427;-71
2023/04/23 18:11:24;;;;;;;13.23;7.63;;;;;;;13.63;93.55;94501.84;10384449;28;20039;-70
2023/04/23 18:16:24;;;;;;;13.30;7.40;;;;;;;13.52;94.55;94513.91;10407772;28;20443;-77
2023/04/23 18:21:26;;;;;;;11.57;7.77;;;;;;;13.43;94.06;94521.88;10413051;28;20032;-73
2023/04/23 18:26:26;;;;;;;15.07;7.82;;;;;;;13.30;96.07;94519.94;10387814;28;20276;-73
2023/04/23 18:31:27;;;;;;;10.90;7.13;;;;;;;13.25;94.63;94522.72;10417275;28;20021;-72
2023/04/23 18:36:32;;;;;;;12.13;6.13;;;;;;;13.15;94.06;94526.38;10417349;28;20689;-72
2023/04/23 18:41:33;;;;;;;10.32;6.40;;;;;;;12.95;95.12;94538.31;10410333;28;20033;-72
2023/04/23 18:46:34;;;;;;;14.80;7.03;;;;;;;12.78;96.00;94541.50;10417729;28;20513;-73
2023/04/23 18:51:42;;;;;;;12.15;7.30;;;;;;;12.70;96.80;94542.13;10416661;28;20028;-73
2023/04/23 18:56:46;;;;;;;10.20;7.65;;;;;;;12.65;97.96;94537.63;10423860;28;20039;-72
2023/04/23 19:01:47;;;;;;;10.55;7.88;;;;;;;12.69;98.04;94543.25;10417021;28;20526;-70
2023/04/23 19:06:47;;;;;;;13.10;7.68;;;;;;;12.52;97.69;94555.34;10416971;28;20479;-72
2023/04/23 19:11:48;;;;;;;12.27;8.03;;;;;;;12.48;98.12;94543.53;10416355;28;20041;-73
2023/04/23 19:16:52;;;;;;;9.57;6.97;;;;;;;12.47;97.65;94547.31;10415518;28;20345;-72
2023/04/23 19:21:53;;;;;;;14.65;8.30;;;;;;;12.39;98.71;94542.56;10416818;28;20036;-72
2023/04/23 19:26:53;;;;;;;13.15;7.65;;;;;;;12.30;98.75;94553.97;10417631;28;20028;-71
2023/04/23 19:31:53;;;;;;;13.83;7.20;;;;;;;12.16;100.00;94550.38;10420728;28;20024;-71
2023/04/23 19:36:54;;;;;;;10.18;6.35;;;;;;;11.97;100.00;94544.94;10420991;28;20407;-71
2023/04/23 19:41:54;;;;;;;13.77;7.33;;;;;;;11.86;100.00;94540.72;10420727;28;20123;-71
2023/04/23 19:46:55;;;;;;;16.60;6.43;;;;;;;11.84;100.00;94541.00;10419443;28;20758;-69
2023/04/23 19:51:57;;;;;;;12.90;6.78;;;;;;;11.75;100.00;94542.72;10420970;28;20745;-71
2023/04/23 19:56:57;;;;;;;10.82;6.97;;;;;;;11.68;100.00;94551.13;10419912;28;20060;-71
2023/04/23 20:01:58;;;;;;;13.10;6.78;;;;;;;11.68;100.00;94547.63;10403030;28;20029;-70
2023/04/23 20:06:58;;;;;;;13.05;6.68;;;;;;;11.74;100.00;94551.88;10383169;28;20086;-70
2023/04/23 20:12:00;;;;;;;8.13;6.33;;;;;;;11.70;100.00;94551.63;10388477;28;20055;-70
2023/04/23 20:17:00;;;;;;;10.00;6.25;;;;;;;11.72;100.00;94554.88;10413467;28;20026;-70
2023/04/23 20:22:01;;;;;;;11.77;7.03;;;;;;;11.75;100.00;94553.50;10383607;28;20020;-71
2023/04/23 20:27:01;;;;;;;9.23;6.90;;;;;;;11.77;100.00;94554.78;10419065;28;20025;-70
2023/04/23 20:32:02;;;;;;;9.38;6.45;;;;;;;11.74;100.00;94549.97;10418065;28;20051;-70
2023/04/23 20:37:02;;;;;;;10.20;5.93;;;;;;;11.61;100.00;94551.47;10418083;28;20047;-70
2023/04/23 20:42:04;;;;;;;10.55;6.05;;;;;;;11.42;100.00;94562.13;10391606;28;20040;-70
2023/04/23 20:47:07;;;;;;;9.20;6.07;;;;;;;11.31;100.00;94557.91;10411952;28;20036;-70
2023/04/23 20:52:07;;;;;;;10.85;6.43;;;;;;;11.32;100.00;94548.75;10419203;28;20021;-72
2023/04/23 20:57:08;;;;;;;9.10;6.05;;;;;;;11.37;100.00;94548.72;10418193;28;20021;-72
2023/04/23 21:02:11;;;;;;;12.43;6.07;;;;;;;11.30;100.00;94545.53;10403868;28;20017;-71
2023/04/23 21:07:11;;;;;;;10.15;5.05;;;;;;;11.18;100.00;94569.34;10417630;28;20680;-70
2023/04/23 21:12:12;;;;;;;16.77;5.50;;;;;;;10.99;100.00;94569.19;10417831;28;20114;-71
2023/04/23 21:17:12;;;;;;;12.45;6.25;;;;;;;10.99;100.00;94564.59;10417383;28;20120;-71
2023/04/23 21:22:13;;;;;;;17.40;5.97;;;;;;;11.07;100.00;94560.53;10417232;28;20035;-70
2023/04/23 21:27:16;;;;;;;9.23;5.53;;;;;;;11.02;100.00;94558.66;10417282;28;20021;-70
2023/04/23 21:32:17;;;;;;;8.55;4.95;;;;;;;11.05;100.00;94557.31;10417284;28;20498;-71
2023/04/23 21:37:17;;;;;;;13.25;5.18;;;;;;;11.03;100.00;94565.66;10416959;28;20037;-70
2023/04/23 21:42:18;;;;;;;9.05;5.53;;;;;;;11.00;100.00;94566.22;10417115;28;20484;-70
2023/04/23 21:47:19;;;;;;;9.98;6.25;;;;;;;11.04;100.00;94566.47;10416548;28;20100;-70
2023/04/23 21:52:19;;;;;;;8.07;4.93;;;;;;;11.00;100.00;94574.28;10398997;28;20036;-70
2023/04/23 21:57:20;;;;;;;14.40;5.78;;;;;;;11.01;100.00;94575.91;10415988;28;20086;-70
2023/04/23 22:02:21;;;;;;;10.43;4.75;;;;;;;11.05;100.00;94576.13;10416150;28;20024;-69
2023/04/23 22:07:21;;;;;;;10.20;5.78;;;;;;;11.04;100.00;94580.72;10401576;28;20476;-70
2023/04/23 22:12:22;;;;;;;7.63;4.82;;;;;;;11.11;100.00;94577.72;10423060;28;20031;-71
2023/04/23 22:17:24;;;;;;;8.48;5.35;;;;;;;11.07;100.00;94588.22;10405811;28;20043;-70
2023/04/23 22:22:25;;;;;;;10.77;6.22;;;;;;;11.06;100.00;94575.84;10423150;28;20060;-70
2023/04/23 22:27:27;;;;;;;7.72;5.22;;;;;;;11.14;100.00;94584.44;10422720;28;20128;-70
2023/04/23 22:32:28;;;;;;;8.93;5.60;;;;;;;11.01;100.00;94577.75;10422897;28;20534;-70
2023/04/23 22:37:30;;;;;;;18.38;8.35;;;;;;;10.88;100.00;94573.81;10392395;28;20443;-70
2023/04/23 22:42:30;;;;;;;14.48;7.80;;;;;;;10.95;100.00;94563.56;10400455;28;20118;-70
2023/04/23 22:47:31;;;;;;;15.93;10.82;;;;;;;10.89;100.00;94545.88;10422710;28;20020;-70
2023/04/23 22:52:31;;;;;;;17.70;9.50;;;;;;;10.99;100.00;94555.75;10414742;28;20029;-70
2023/04/23 22:57:32;;;;;;;12.05;8.10;;;;;;;11.02;100.00;94544.44;10421704;28;20506;-69
2023/04/23 23:02:32;;;;;;;17.05;10.05;;;;;;;11.12;100.00;94536.25;10422475;28;20075;-70
2023/04/23 23:07:32;;;;;;;21.75;8.82;;;;;;;11.07;100.00;94539.81;10403778;28;20670;-70